Wind from 270 at 6 knots gusting 12

Air temperature 17.2° C
Dewpoint 14.5° C

Last reported at 2014-Apr-16 23:45 UTC.
Time now 2014-Apr-17 00:59 UTC

Location: N 38°48' E 000°11'.
View on Google Maps.

See reports from other nearby stations

Tides Stations Pressure Air Temp Water Temp Dewpoint Dewpoint depression Visibility Wind Speed Wind Dir Waves Ship positions

  
sailing weather and tide predictions

CW2798 Aduanas ES weather

date/time (UTC)wind fromknots sea level pressurealtimeterstation pressurevisibilityair tempwater tempwave heightnotes
2014-Apr-16 23:45 270 6 gusting 12 17.2
2014-Apr-16 23:30 258 6 gusting 12 17.2
2014-Apr-16 22:45 303 0 gusting 4 17.2
2014-Apr-16 22:30 292 0 gusting 6 17.2
2014-Apr-16 22:15 16.7
2014-Apr-16 22:00 278 2 gusting 3 17.2
2014-Apr-16 20:30 17.8
2014-Apr-16 20:15 17.8
2014-Apr-16 20:00 17.8
2014-Apr-16 19:45 18.3
2014-Apr-16 19:30 18.3
2014-Apr-16 19:00 18.9
2014-Apr-16 18:30 19.4
2014-Apr-16 18:15 259 1 gusting 5 19.4
2014-Apr-16 18:00 256 3 gusting 6 19.4
2014-Apr-16 17:45 260 5 gusting 10 20.0
2014-Apr-16 17:15 257 6 gusting 11 20.6
2014-Apr-16 17:00 256 4 gusting 8 21.7
2014-Apr-16 16:45 264 5 gusting 9 21.1
2014-Apr-16 16:30 251 6 gusting 13 21.1
2014-Apr-16 16:15 237 5 gusting 8 21.7
2014-Apr-16 16:00 237 5 gusting 11 21.7
2014-Apr-16 15:00 244 3 gusting 11 21.1
2014-Apr-16 14:45 167 5 gusting 8 20.0
2014-Apr-16 14:15 163 5 gusting 9 20.0
2014-Apr-16 13:45 170 3 gusting 9 20.6
2014-Apr-16 13:30 077 3 gusting 6 19.4
2014-Apr-16 13:15 075 2 gusting 6 18.9
2014-Apr-16 13:00 051 2 gusting 5 18.3
2014-Apr-16 12:45 093 0 gusting 5 18.9
2014-Apr-16 12:30 129 1 gusting 6 18.9
2014-Apr-16 12:00 135 1 gusting 4 19.4
2014-Apr-16 11:30 135 21.1
2014-Apr-16 11:00 004 5 gusting 9 20.0
2014-Apr-16 10:45 346 2 gusting 7 20.6
2014-Apr-16 10:30 339 3 gusting 9 20.6
2014-Apr-16 10:15 343 6 gusting 10 19.4
2014-Apr-16 10:00 358 5 gusting 10 19.4
2014-Apr-16 09:15 343 6 gusting 12 19.4
2014-Apr-16 08:45 344 1 gusting 6 19.4
2014-Apr-16 08:30 340 4 gusting 9 18.9
2014-Apr-16 08:00 344 4 gusting 7 18.3
2014-Apr-16 07:15 336 5 gusting 9 17.8
2014-Apr-16 07:00 327 4 gusting 13 17.2
2014-Apr-16 06:15 338 2 gusting 13 16.7
2014-Apr-16 06:00 15.6
2014-Apr-16 05:45 15.6
2014-Apr-16 05:30 15.0
2014-Apr-16 05:15 250 15.0
2014-Apr-16 05:00 15.0
2014-Apr-16 03:45 275 16.1
2014-Apr-16 03:30 281 2 gusting 5 16.1
2014-Apr-16 03:15 15.0
2014-Apr-16 03:00 14.4
2014-Apr-16 02:45 15.0
2014-Apr-16 02:30 15.0
2014-Apr-16 02:15 15.0
2014-Apr-16 02:00 15.0
2014-Apr-16 01:45 15.6
2014-Apr-16 01:15 15.6
2014-Apr-16 01:00 16.1
2014-Apr-16 00:45 16.7
2014-Apr-16 00:15 16.7
2014-Apr-15 23:30 16.7
2014-Apr-15 22:45 17.2
2014-Apr-15 22:15 17.2
2014-Apr-15 21:45 284 0 gusting 3 17.8
2014-Apr-15 20:45 270 4 gusting 7 18.3
2014-Apr-15 20:30 272 3 gusting 6 18.3
2014-Apr-15 19:45 275 4 gusting 8 18.3
2014-Apr-15 19:15 278 0 gusting 2 18.9
2014-Apr-15 19:00 279 4 gusting 7 18.9
2014-Apr-15 18:15 251 5 gusting 6 20.0
2014-Apr-15 18:00 251 5 gusting 9 20.6
2014-Apr-15 17:15 268 6 gusting 11 21.1
2014-Apr-15 17:00 262 4 gusting 8 22.2
2014-Apr-15 16:15 254 5 gusting 11 22.2
2014-Apr-15 16:00 258 6 gusting 15 22.2
2014-Apr-15 15:30 256 6 gusting 15 23.3
2014-Apr-15 15:15 259 7 gusting 13 23.3
2014-Apr-15 15:00 237 6 gusting 11 23.9
2014-Apr-15 14:45 234 6 gusting 15 23.3
2014-Apr-15 14:30 250 7 gusting 11 23.3
2014-Apr-15 14:15 251 7 gusting 13 23.3
2014-Apr-15 13:45 235 6 gusting 11 23.3
2014-Apr-15 13:30 251 8 gusting 14 22.8
2014-Apr-15 13:15 260 7 gusting 12 23.3
2014-Apr-15 13:00 263 6 gusting 13 23.3
2014-Apr-15 12:45 257 6 gusting 12 23.3
2014-Apr-15 11:45 213 5 gusting 13 23.3
2014-Apr-15 11:30 200 4 gusting 10 22.8
2014-Apr-15 11:15 220 6 gusting 13 22.8
2014-Apr-15 10:45 232 6 gusting 16 23.3
2014-Apr-15 10:15 212 4 gusting 11 22.8
2014-Apr-15 10:00 231 6 gusting 8 22.2
2014-Apr-15 09:15 079 0 gusting 3 20.6
2014-Apr-15 09:00 086 20.0
2014-Apr-15 08:15 20.6
2014-Apr-15 07:30 284 18.3
2014-Apr-15 07:15 17.2
2014-Apr-15 07:00 16.1
2014-Apr-15 06:45 15.0
2014-Apr-15 04:45 258 0 gusting 4 12.8
2014-Apr-15 03:45 13.9
2014-Apr-15 03:30 13.3
2014-Apr-15 02:30 14.4
2014-Apr-15 02:00 15.6
2014-Apr-15 01:45 16.1
2014-Apr-15 01:30 16.1
2014-Apr-15 01:00 17.2
2014-Apr-15 00:45 17.8
2014-Apr-15 00:30 18.3
2014-Apr-15 00:00 18.3